sensor_id;sensor_type;location;lat;lon;timestamp;P1;durP1;ratioP1;P2;durP2;ratioP2
54919;SDS011;63804;53.120;8.764;2022-11-28T00:01:55;13.73;;;5.35;;
54919;SDS011;63804;53.120;8.764;2022-11-28T00:04:21;11.85;;;5.47;;
54919;SDS011;63804;53.120;8.764;2022-11-28T00:06:47;12.90;;;5.45;;
54919;SDS011;63804;53.120;8.764;2022-11-28T00:09:17;13.15;;;6.00;;
54919;SDS011;63804;53.120;8.764;2022-11-28T00:11:50;11.18;;;5.10;;
54919;SDS011;63804;53.120;8.764;2022-11-28T00:14:17;9.07;;;4.80;;
54919;SDS011;63804;53.120;8.764;2022-11-28T00:16:44;11.20;;;5.68;;
54919;SDS011;63804;53.120;8.764;2022-11-28T00:19:10;11.85;;;5.32;;
54919;SDS011;63804;53.120;8.764;2022-11-28T00:21:36;11.80;;;5.25;;
54919;SDS011;63804;53.120;8.764;2022-11-28T00:24:02;11.95;;;5.13;;
54919;SDS011;63804;53.120;8.764;2022-11-28T00:26:29;13.35;;;4.85;;
54919;SDS011;63804;53.120;8.764;2022-11-28T00:28:56;12.65;;;5.38;;
54919;SDS011;63804;53.120;8.764;2022-11-28T00:31:26;11.45;;;5.35;;
54919;SDS011;63804;53.120;8.764;2022-11-28T00:33:57;10.90;;;4.80;;
54919;SDS011;63804;53.120;8.764;2022-11-28T00:36:23;11.77;;;4.88;;
54919;SDS011;63804;53.120;8.764;2022-11-28T00:38:49;11.90;;;4.90;;
54919;SDS011;63804;53.120;8.764;2022-11-28T00:41:20;10.40;;;5.47;;
54919;SDS011;63804;53.120;8.764;2022-11-28T00:46:16;13.90;;;5.97;;
54919;SDS011;63804;53.120;8.764;2022-11-28T00:48:43;12.95;;;5.50;;
54919;SDS011;63804;53.120;8.764;2022-11-28T00:51:10;13.40;;;5.20;;
54919;SDS011;63804;53.120;8.764;2022-11-28T00:53:38;10.50;;;5.40;;
54919;SDS011;63804;53.120;8.764;2022-11-28T00:56:06;11.52;;;4.90;;
54919;SDS011;63804;53.120;8.764;2022-11-28T00:58:33;12.82;;;5.38;;
54919;SDS011;63804;53.120;8.764;2022-11-28T01:03:42;10.77;;;5.05;;
54919;SDS011;63804;53.120;8.764;2022-11-28T01:06:09;10.23;;;4.97;;
54919;SDS011;63804;53.120;8.764;2022-11-28T01:08:36;11.13;;;5.10;;
54919;SDS011;63804;53.120;8.764;2022-11-28T01:11:02;10.15;;;5.00;;
54919;SDS011;63804;53.120;8.764;2022-11-28T01:13:28;11.73;;;5.38;;
54919;SDS011;63804;53.120;8.764;2022-11-28T01:15:54;13.23;;;5.30;;
54919;SDS011;63804;53.120;8.764;2022-11-28T01:18:20;11.20;;;5.53;;
54919;SDS011;63804;53.120;8.764;2022-11-28T01:20:45;10.75;;;5.15;;
54919;SDS011;63804;53.120;8.764;2022-11-28T01:23:11;11.27;;;5.40;;
54919;SDS011;63804;53.120;8.764;2022-11-28T01:25:37;10.18;;;4.57;;
54919;SDS011;63804;53.120;8.764;2022-11-28T01:28:03;8.35;;;4.63;;
54919;SDS011;63804;53.120;8.764;2022-11-28T01:30:29;11.00;;;4.82;;
54919;SDS011;63804;53.120;8.764;2022-11-28T01:32:54;14.57;;;5.28;;
54919;SDS011;63804;53.120;8.764;2022-11-28T01:35:20;10.90;;;4.68;;
54919;SDS011;63804;53.120;8.764;2022-11-28T01:37:46;12.18;;;4.80;;
54919;SDS011;63804;53.120;8.764;2022-11-28T01:40:12;9.20;;;4.50;;
54919;SDS011;63804;53.120;8.764;2022-11-28T01:42:38;12.18;;;5.53;;
54919;SDS011;63804;53.120;8.764;2022-11-28T01:45:12;10.15;;;4.57;;
54919;SDS011;63804;53.120;8.764;2022-11-28T01:47:39;9.75;;;4.90;;
54919;SDS011;63804;53.120;8.764;2022-11-28T01:50:05;10.35;;;4.45;;
54919;SDS011;63804;53.120;8.764;2022-11-28T01:52:32;10.10;;;4.97;;
54919;SDS011;63804;53.120;8.764;2022-11-28T01:54:59;10.05;;;4.57;;
54919;SDS011;63804;53.120;8.764;2022-11-28T01:57:27;9.13;;;4.82;;
54919;SDS011;63804;53.120;8.764;2022-11-28T02:00:10;11.57;;;4.88;;
54919;SDS011;63804;53.120;8.764;2022-11-28T02:05:06;10.70;;;4.40;;
54919;SDS011;63804;53.120;8.764;2022-11-28T02:07:33;10.23;;;4.22;;
54919;SDS011;63804;53.120;8.764;2022-11-28T02:10:01;12.10;;;5.30;;
54919;SDS011;63804;53.120;8.764;2022-11-28T02:18:12;10.48;;;4.72;;
54919;SDS011;63804;53.120;8.764;2022-11-28T02:42:46;10.45;;;4.13;;
54919;SDS011;63804;53.120;8.764;2022-11-28T02:45:26;9.57;;;4.30;;
54919;SDS011;63804;53.120;8.764;2022-11-28T02:48:03;9.35;;;4.65;;
54919;SDS011;63804;53.120;8.764;2022-11-28T02:50:36;8.30;;;4.20;;
54919;SDS011;63804;53.120;8.764;2022-11-28T02:53:08;9.57;;;4.60;;
54919;SDS011;63804;53.120;8.764;2022-11-28T02:55:38;10.23;;;4.60;;
54919;SDS011;63804;53.120;8.764;2022-11-28T02:58:05;10.73;;;4.38;;
54919;SDS011;63804;53.120;8.764;2022-11-28T03:00:34;9.07;;;4.03;;
54919;SDS011;63804;53.120;8.764;2022-11-28T03:14:51;8.33;;;4.33;;
54919;SDS011;63804;53.120;8.764;2022-11-28T03:17:25;8.82;;;4.28;;
54919;SDS011;63804;53.120;8.764;2022-11-28T03:20:03;9.88;;;4.20;;
54919;SDS011;63804;53.120;8.764;2022-11-28T03:25:22;10.30;;;4.47;;
54919;SDS011;63804;53.120;8.764;2022-11-28T03:28:10;9.05;;;4.53;;
54919;SDS011;63804;53.120;8.764;2022-11-28T03:33:37;7.97;;;3.95;;
54919;SDS011;63804;53.120;8.764;2022-11-28T03:36:07;10.30;;;4.47;;
54919;SDS011;63804;53.120;8.764;2022-11-28T03:38:40;8.75;;;4.38;;
54919;SDS011;63804;53.120;8.764;2022-11-28T03:41:11;8.40;;;4.45;;
54919;SDS011;63804;53.120;8.764;2022-11-28T03:43:42;8.63;;;3.97;;
54919;SDS011;63804;53.120;8.764;2022-11-28T03:46:15;9.73;;;4.35;;
54919;SDS011;63804;53.120;8.764;2022-11-28T03:48:45;10.07;;;4.57;;
54919;SDS011;63804;53.120;8.764;2022-11-28T03:51:15;9.00;;;4.00;;
54919;SDS011;63804;53.120;8.764;2022-11-28T04:04:28;10.55;;;4.40;;
54919;SDS011;63804;53.120;8.764;2022-11-28T04:07:12;8.65;;;4.40;;
54919;SDS011;63804;53.120;8.764;2022-11-28T04:15:11;9.18;;;4.47;;
54919;SDS011;63804;53.120;8.764;2022-11-28T04:20:22;8.70;;;4.57;;
54919;SDS011;63804;53.120;8.764;2022-11-28T04:22:54;9.05;;;4.13;;
54919;SDS011;63804;53.120;8.764;2022-11-28T04:25:25;9.10;;;4.68;;
54919;SDS011;63804;53.120;8.764;2022-11-28T04:27:58;11.85;;;4.97;;
54919;SDS011;63804;53.120;8.764;2022-11-28T04:30:29;10.73;;;4.95;;
54919;SDS011;63804;53.120;8.764;2022-11-28T04:32:57;9.52;;;4.57;;
54919;SDS011;63804;53.120;8.764;2022-11-28T04:35:34;10.88;;;5.07;;
54919;SDS011;63804;53.120;8.764;2022-11-28T04:38:05;9.95;;;4.55;;
54919;SDS011;63804;53.120;8.764;2022-11-28T04:40:33;9.20;;;4.38;;
54919;SDS011;63804;53.120;8.764;2022-11-28T04:43:22;8.52;;;3.92;;
54919;SDS011;63804;53.120;8.764;2022-11-28T04:46:02;9.07;;;4.35;;
54919;SDS011;63804;53.120;8.764;2022-11-28T04:48:33;8.80;;;4.65;;
54919;SDS011;63804;53.120;8.764;2022-11-28T04:51:03;9.70;;;4.50;;
54919;SDS011;63804;53.120;8.764;2022-11-28T04:54:06;9.73;;;5.00;;
54919;SDS011;63804;53.120;8.764;2022-11-28T04:59:13;10.52;;;4.68;;
54919;SDS011;63804;53.120;8.764;2022-11-28T05:01:40;9.57;;;4.68;;
54919;SDS011;63804;53.120;8.764;2022-11-28T05:04:09;8.77;;;4.60;;
54919;SDS011;63804;53.120;8.764;2022-11-28T05:06:35;8.60;;;4.63;;
54919;SDS011;63804;53.120;8.764;2022-11-28T05:09:01;11.68;;;5.22;;
54919;SDS011;63804;53.120;8.764;2022-11-28T05:11:28;9.75;;;4.57;;
54919;SDS011;63804;53.120;8.764;2022-11-28T05:13:53;9.88;;;4.85;;
54919;SDS011;63804;53.120;8.764;2022-11-28T05:16:20;10.68;;;4.82;;
54919;SDS011;63804;53.120;8.764;2022-11-28T05:18:47;10.15;;;5.07;;
54919;SDS011;63804;53.120;8.764;2022-11-28T05:21:13;9.55;;;4.40;;
54919;SDS011;63804;53.120;8.764;2022-11-28T05:23:40;9.75;;;5.10;;
54919;SDS011;63804;53.120;8.764;2022-11-28T05:26:11;11.30;;;5.05;;
54919;SDS011;63804;53.120;8.764;2022-11-28T05:28:41;8.93;;;5.03;;
54919;SDS011;63804;53.120;8.764;2022-11-28T05:31:09;8.63;;;4.93;;
54919;SDS011;63804;53.120;8.764;2022-11-28T05:33:35;9.73;;;5.20;;
54919;SDS011;63804;53.120;8.764;2022-11-28T05:36:05;9.50;;;4.75;;
54919;SDS011;63804;53.120;8.764;2022-11-28T05:38:33;10.40;;;5.10;;
54919;SDS011;63804;53.120;8.764;2022-11-28T05:40:59;9.10;;;4.70;;
54919;SDS011;63804;53.120;8.764;2022-11-28T05:43:26;10.00;;;5.53;;
54919;SDS011;63804;53.120;8.764;2022-11-28T05:45:52;10.93;;;4.72;;
54919;SDS011;63804;53.120;8.764;2022-11-28T05:48:18;10.35;;;5.00;;
54919;SDS011;63804;53.120;8.764;2022-11-28T05:50:44;9.75;;;4.50;;
54919;SDS011;63804;53.120;8.764;2022-11-28T05:53:10;10.60;;;5.00;;
54919;SDS011;63804;53.120;8.764;2022-11-28T05:55:37;12.05;;;5.25;;
54919;SDS011;63804;53.120;8.764;2022-11-28T05:58:04;9.90;;;4.47;;
54919;SDS011;63804;53.120;8.764;2022-11-28T06:00:30;10.38;;;4.97;;
54919;SDS011;63804;53.120;8.764;2022-11-28T06:02:56;9.73;;;4.78;;
54919;SDS011;63804;53.120;8.764;2022-11-28T06:05:22;10.25;;;4.97;;
54919;SDS011;63804;53.120;8.764;2022-11-28T06:07:48;11.20;;;5.15;;
54919;SDS011;63804;53.120;8.764;2022-11-28T06:10:14;11.23;;;4.95;;
54919;SDS011;63804;53.120;8.764;2022-11-28T06:12:39;9.57;;;4.53;;
54919;SDS011;63804;53.120;8.764;2022-11-28T06:15:05;9.75;;;4.50;;
54919;SDS011;63804;53.120;8.764;2022-11-28T06:17:31;9.38;;;4.93;;
54919;SDS011;63804;53.120;8.764;2022-11-28T06:19:57;8.32;;;4.50;;
54919;SDS011;63804;53.120;8.764;2022-11-28T06:22:23;9.40;;;4.60;;
54919;SDS011;63804;53.120;8.764;2022-11-28T06:24:48;9.25;;;4.85;;
54919;SDS011;63804;53.120;8.764;2022-11-28T06:27:14;10.10;;;4.97;;
54919;SDS011;63804;53.120;8.764;2022-11-28T06:29:40;9.55;;;4.88;;
54919;SDS011;63804;53.120;8.764;2022-11-28T06:32:05;10.45;;;4.82;;
54919;SDS011;63804;53.120;8.764;2022-11-28T06:34:31;10.48;;;5.38;;
54919;SDS011;63804;53.120;8.764;2022-11-28T06:36:57;12.57;;;5.65;;
54919;SDS011;63804;53.120;8.764;2022-11-28T06:39:22;10.68;;;5.07;;
54919;SDS011;63804;53.120;8.764;2022-11-28T06:41:48;10.23;;;5.32;;
54919;SDS011;63804;53.120;8.764;2022-11-28T06:44:14;11.32;;;5.40;;
54919;SDS011;63804;53.120;8.764;2022-11-28T06:46:41;10.00;;;4.95;;
54919;SDS011;63804;53.120;8.764;2022-11-28T06:49:07;11.10;;;5.07;;
54919;SDS011;63804;53.120;8.764;2022-11-28T06:51:37;12.25;;;5.65;;
54919;SDS011;63804;53.120;8.764;2022-11-28T06:54:04;10.57;;;5.35;;
54919;SDS011;63804;53.120;8.764;2022-11-28T06:56:30;10.85;;;5.13;;
54919;SDS011;63804;53.120;8.764;2022-11-28T06:58:57;9.70;;;4.88;;
54919;SDS011;63804;53.120;8.764;2022-11-28T07:01:24;11.10;;;5.00;;
54919;SDS011;63804;53.120;8.764;2022-11-28T07:03:54;10.60;;;5.22;;
54919;SDS011;63804;53.120;8.764;2022-11-28T07:06:21;10.63;;;5.25;;
54919;SDS011;63804;53.120;8.764;2022-11-28T07:08:48;10.68;;;5.63;;
54919;SDS011;63804;53.120;8.764;2022-11-28T07:13:42;12.05;;;6.18;;
54919;SDS011;63804;53.120;8.764;2022-11-28T07:16:23;12.55;;;5.90;;
54919;SDS011;63804;53.120;8.764;2022-11-28T07:18:50;11.93;;;6.20;;
54919;SDS011;63804;53.120;8.764;2022-11-28T07:21:16;11.30;;;5.95;;
54919;SDS011;63804;53.120;8.764;2022-11-28T07:23:43;12.13;;;6.22;;
54919;SDS011;63804;53.120;8.764;2022-11-28T07:26:10;12.68;;;6.25;;
54919;SDS011;63804;53.120;8.764;2022-11-28T07:28:37;12.23;;;6.15;;
54919;SDS011;63804;53.120;8.764;2022-11-28T07:31:07;11.55;;;6.03;;
54919;SDS011;63804;53.120;8.764;2022-11-28T07:33:38;10.95;;;6.10;;
54919;SDS011;63804;53.120;8.764;2022-11-28T07:36:06;10.65;;;5.43;;
54919;SDS011;63804;53.120;8.764;2022-11-28T07:38:36;10.90;;;5.88;;
54919;SDS011;63804;53.120;8.764;2022-11-28T07:41:03;10.88;;;5.72;;
54919;SDS011;63804;53.120;8.764;2022-11-28T07:43:28;11.55;;;5.68;;
54919;SDS011;63804;53.120;8.764;2022-11-28T07:45:54;12.13;;;5.97;;
54919;SDS011;63804;53.120;8.764;2022-11-28T07:48:20;12.45;;;5.60;;
54919;SDS011;63804;53.120;8.764;2022-11-28T07:50:46;11.80;;;5.45;;
54919;SDS011;63804;53.120;8.764;2022-11-28T07:53:12;11.50;;;5.68;;
54919;SDS011;63804;53.120;8.764;2022-11-28T07:55:37;11.45;;;5.55;;
54919;SDS011;63804;53.120;8.764;2022-11-28T07:58:03;11.75;;;5.60;;
54919;SDS011;63804;53.120;8.764;2022-11-28T08:00:30;11.38;;;5.95;;
54919;SDS011;63804;53.120;8.764;2022-11-28T08:02:56;12.05;;;6.10;;
54919;SDS011;63804;53.120;8.764;2022-11-28T08:05:22;15.35;;;8.30;;
54919;SDS011;63804;53.120;8.764;2022-11-28T08:07:48;15.68;;;6.82;;
54919;SDS011;63804;53.120;8.764;2022-11-28T08:10:15;16.67;;;9.07;;
54919;SDS011;63804;53.120;8.764;2022-11-28T08:12:41;11.40;;;6.22;;
54919;SDS011;63804;53.120;8.764;2022-11-28T08:15:07;12.27;;;6.60;;
54919;SDS011;63804;53.120;8.764;2022-11-28T08:17:33;13.38;;;5.97;;
54919;SDS011;63804;53.120;8.764;2022-11-28T08:19:59;12.57;;;6.93;;
54919;SDS011;63804;53.120;8.764;2022-11-28T08:22:26;11.32;;;5.97;;
54919;SDS011;63804;53.120;8.764;2022-11-28T08:24:52;11.27;;;5.63;;
54919;SDS011;63804;53.120;8.764;2022-11-28T08:27:17;11.38;;;5.97;;
54919;SDS011;63804;53.120;8.764;2022-11-28T08:29:43;15.00;;;6.25;;
54919;SDS011;63804;53.120;8.764;2022-11-28T08:32:09;12.82;;;6.28;;
54919;SDS011;63804;53.120;8.764;2022-11-28T08:34:34;10.50;;;5.70;;
54919;SDS011;63804;53.120;8.764;2022-11-28T08:37:00;13.63;;;6.78;;
54919;SDS011;63804;53.120;8.764;2022-11-28T08:39:26;12.88;;;7.82;;
54919;SDS011;63804;53.120;8.764;2022-11-28T08:41:52;12.25;;;6.30;;
54919;SDS011;63804;53.120;8.764;2022-11-28T08:44:21;13.43;;;8.02;;
54919;SDS011;63804;53.120;8.764;2022-11-28T08:46:47;12.05;;;6.63;;
54919;SDS011;63804;53.120;8.764;2022-11-28T08:49:13;12.00;;;6.00;;
54919;SDS011;63804;53.120;8.764;2022-11-28T08:51:38;11.43;;;6.70;;
54919;SDS011;63804;53.120;8.764;2022-11-28T08:54:04;12.35;;;6.05;;
54919;SDS011;63804;53.120;8.764;2022-11-28T08:56:30;13.93;;;6.43;;
54919;SDS011;63804;53.120;8.764;2022-11-28T08:58:56;11.93;;;6.65;;
54919;SDS011;63804;53.120;8.764;2022-11-28T09:01:22;12.75;;;5.95;;
54919;SDS011;63804;53.120;8.764;2022-11-28T09:03:50;12.52;;;6.22;;
54919;SDS011;63804;53.120;8.764;2022-11-28T09:06:17;14.02;;;6.47;;
54919;SDS011;63804;53.120;8.764;2022-11-28T09:08:43;13.32;;;6.68;;
54919;SDS011;63804;53.120;8.764;2022-11-28T09:11:10;10.90;;;6.22;;
54919;SDS011;63804;53.120;8.764;2022-11-28T09:13:37;12.48;;;6.40;;
54919;SDS011;63804;53.120;8.764;2022-11-28T09:16:03;11.35;;;6.28;;
54919;SDS011;63804;53.120;8.764;2022-11-28T09:18:30;12.85;;;6.13;;
54919;SDS011;63804;53.120;8.764;2022-11-28T09:20:59;11.90;;;6.22;;
54919;SDS011;63804;53.120;8.764;2022-11-28T09:23:27;10.98;;;5.88;;
54919;SDS011;63804;53.120;8.764;2022-11-28T09:25:53;10.70;;;5.63;;
54919;SDS011;63804;53.120;8.764;2022-11-28T09:28:19;10.55;;;5.50;;
54919;SDS011;63804;53.120;8.764;2022-11-28T09:30:45;11.65;;;5.97;;
54919;SDS011;63804;53.120;8.764;2022-11-28T09:33:11;12.45;;;6.18;;
54919;SDS011;63804;53.120;8.764;2022-11-28T09:35:40;10.77;;;5.68;;
54919;SDS011;63804;53.120;8.764;2022-11-28T09:38:06;12.18;;;6.20;;
54919;SDS011;63804;53.120;8.764;2022-11-28T09:40:39;17.42;;;10.30;;
54919;SDS011;63804;53.120;8.764;2022-11-28T09:46:03;18.63;;;13.67;;
54919;SDS011;63804;53.120;8.764;2022-11-28T09:48:35;17.17;;;9.82;;
54919;SDS011;63804;53.120;8.764;2022-11-28T09:59:27;17.10;;;6.25;;
54919;SDS011;63804;53.120;8.764;2022-11-28T10:13:15;12.20;;;6.20;;
54919;SDS011;63804;53.120;8.764;2022-11-28T10:18:44;12.80;;;6.78;;
54919;SDS011;63804;53.120;8.764;2022-11-28T10:23:56;11.75;;;6.03;;
54919;SDS011;63804;53.120;8.764;2022-11-28T10:29:04;12.80;;;6.10;;
54919;SDS011;63804;53.120;8.764;2022-11-28T10:31:43;12.85;;;6.13;;
54919;SDS011;63804;53.120;8.764;2022-11-28T10:34:18;13.25;;;6.30;;
54919;SDS011;63804;53.120;8.764;2022-11-28T10:37:13;12.05;;;6.85;;
54919;SDS011;63804;53.120;8.764;2022-11-28T10:39:45;12.20;;;6.20;;
54919;SDS011;63804;53.120;8.764;2022-11-28T10:42:21;12.00;;;6.40;;
54919;SDS011;63804;53.120;8.764;2022-11-28T10:45:06;12.25;;;6.20;;
54919;SDS011;63804;53.120;8.764;2022-11-28T10:52:59;14.17;;;7.43;;
54919;SDS011;63804;53.120;8.764;2022-11-28T10:58:22;11.43;;;6.90;;
54919;SDS011;63804;53.120;8.764;2022-11-28T11:00:52;14.75;;;7.20;;
54919;SDS011;63804;53.120;8.764;2022-11-28T11:03:21;12.90;;;6.60;;
54919;SDS011;63804;53.120;8.764;2022-11-28T11:05:52;12.90;;;7.50;;
54919;SDS011;63804;53.120;8.764;2022-11-28T11:08:19;14.20;;;7.13;;
54919;SDS011;63804;53.120;8.764;2022-11-28T11:11:19;15.07;;;7.18;;
54919;SDS011;63804;53.120;8.764;2022-11-28T11:14:10;15.63;;;7.20;;
54919;SDS011;63804;53.120;8.764;2022-11-28T11:19:21;12.75;;;6.63;;
54919;SDS011;63804;53.120;8.764;2022-11-28T11:24:29;12.50;;;6.35;;
54919;SDS011;63804;53.120;8.764;2022-11-28T11:27:01;14.02;;;7.05;;
54919;SDS011;63804;53.120;8.764;2022-11-28T11:29:46;13.35;;;6.47;;
54919;SDS011;63804;53.120;8.764;2022-11-28T11:32:17;13.63;;;6.72;;
54919;SDS011;63804;53.120;8.764;2022-11-28T11:34:48;15.43;;;7.28;;
54919;SDS011;63804;53.120;8.764;2022-11-28T11:40:03;13.57;;;6.60;;
54919;SDS011;63804;53.120;8.764;2022-11-28T11:42:52;12.68;;;6.68;;
54919;SDS011;63804;53.120;8.764;2022-11-28T11:45:24;12.70;;;6.50;;
54919;SDS011;63804;53.120;8.764;2022-11-28T11:47:57;13.07;;;6.53;;
54919;SDS011;63804;53.120;8.764;2022-11-28T11:50:25;12.95;;;7.05;;
54919;SDS011;63804;53.120;8.764;2022-11-28T11:53:09;13.10;;;6.95;;
54919;SDS011;63804;53.120;8.764;2022-11-28T11:55:57;14.98;;;7.22;;
54919;SDS011;63804;53.120;8.764;2022-11-28T11:58:33;12.65;;;6.65;;
54919;SDS011;63804;53.120;8.764;2022-11-28T12:01:14;15.55;;;8.02;;
54919;SDS011;63804;53.120;8.764;2022-11-28T12:03:52;13.23;;;6.85;;
54919;SDS011;63804;53.120;8.764;2022-11-28T12:06:33;14.43;;;7.00;;
54919;SDS011;63804;53.120;8.764;2022-11-28T12:09:10;16.92;;;7.43;;
54919;SDS011;63804;53.120;8.764;2022-11-28T12:11:52;16.52;;;7.72;;
54919;SDS011;63804;53.120;8.764;2022-11-28T12:14:29;13.57;;;7.55;;
54919;SDS011;63804;53.120;8.764;2022-11-28T12:27:55;15.90;;;7.65;;
54919;SDS011;63804;53.120;8.764;2022-11-28T12:30:30;14.73;;;7.35;;
54919;SDS011;63804;53.120;8.764;2022-11-28T12:36:21;14.48;;;7.55;;
54919;SDS011;63804;53.120;8.764;2022-11-28T12:38:58;14.85;;;7.65;;
54919;SDS011;63804;53.120;8.764;2022-11-28T12:41:46;16.02;;;7.55;;
54919;SDS011;63804;53.120;8.764;2022-11-28T12:52:44;15.43;;;8.07;;
54919;SDS011;63804;53.120;8.764;2022-11-28T12:55:27;14.23;;;6.95;;
54919;SDS011;63804;53.120;8.764;2022-11-28T13:00:49;14.15;;;7.15;;
54919;SDS011;63804;53.120;8.764;2022-11-28T13:03:37;14.95;;;7.53;;
54919;SDS011;63804;53.120;8.764;2022-11-28T13:06:08;16.23;;;7.70;;
54919;SDS011;63804;53.120;8.764;2022-11-28T13:09:00;14.90;;;7.60;;
54919;SDS011;63804;53.120;8.764;2022-11-28T13:11:54;16.40;;;7.95;;
54919;SDS011;63804;53.120;8.764;2022-11-28T13:14:40;14.10;;;7.72;;
54919;SDS011;63804;53.120;8.764;2022-11-28T13:22:27;16.52;;;8.35;;
54919;SDS011;63804;53.120;8.764;2022-11-28T13:25:40;14.68;;;8.35;;
54919;SDS011;63804;53.120;8.764;2022-11-28T13:28:16;13.68;;;7.63;;
54919;SDS011;63804;53.120;8.764;2022-11-28T13:31:43;13.75;;;7.15;;
54919;SDS011;63804;53.120;8.764;2022-11-28T13:34:16;14.65;;;7.55;;
54919;SDS011;63804;53.120;8.764;2022-11-28T13:45:04;16.77;;;7.95;;
54919;SDS011;63804;53.120;8.764;2022-11-28T13:47:43;14.38;;;8.20;;
54919;SDS011;63804;53.120;8.764;2022-11-28T13:55:51;15.63;;;8.00;;
54919;SDS011;63804;53.120;8.764;2022-11-28T14:01:06;14.00;;;8.25;;
54919;SDS011;63804;53.120;8.764;2022-11-28T14:03:34;12.20;;;6.68;;
54919;SDS011;63804;53.120;8.764;2022-11-28T14:06:08;14.82;;;7.70;;
54919;SDS011;63804;53.120;8.764;2022-11-28T14:08:35;19.80;;;8.88;;
54919;SDS011;63804;53.120;8.764;2022-11-28T14:14:06;15.50;;;7.80;;
54919;SDS011;63804;53.120;8.764;2022-11-28T14:22:01;14.65;;;7.82;;
54919;SDS011;63804;53.120;8.764;2022-11-28T14:27:35;14.10;;;7.22;;
54919;SDS011;63804;53.120;8.764;2022-11-28T14:30:03;18.38;;;8.40;;
54919;SDS011;63804;53.120;8.764;2022-11-28T14:35:05;14.40;;;7.63;;
54919;SDS011;63804;53.120;8.764;2022-11-28T14:38:36;13.98;;;7.95;;
54919;SDS011;63804;53.120;8.764;2022-11-28T14:54:22;17.40;;;8.80;;
54919;SDS011;63804;53.120;8.764;2022-11-28T14:56:52;25.67;;;11.88;;
54919;SDS011;63804;53.120;8.764;2022-11-28T14:59:18;17.75;;;9.63;;
54919;SDS011;63804;53.120;8.764;2022-11-28T15:01:57;14.70;;;8.20;;
54919;SDS011;63804;53.120;8.764;2022-11-28T15:07:09;18.38;;;10.60;;
54919;SDS011;63804;53.120;8.764;2022-11-28T15:10:00;19.27;;;11.35;;
54919;SDS011;63804;53.120;8.764;2022-11-28T15:15:21;22.10;;;12.45;;
54919;SDS011;63804;53.120;8.764;2022-11-28T15:17:48;16.00;;;9.10;;
54919;SDS011;63804;53.120;8.764;2022-11-28T15:20:37;14.65;;;8.80;;
54919;SDS011;63804;53.120;8.764;2022-11-28T15:23:27;15.45;;;8.27;;
54919;SDS011;63804;53.120;8.764;2022-11-28T15:25:55;16.30;;;8.07;;
54919;SDS011;63804;53.120;8.764;2022-11-28T15:28:23;14.23;;;8.68;;
54919;SDS011;63804;53.120;8.764;2022-11-28T15:30:53;17.02;;;8.55;;
54919;SDS011;63804;53.120;8.764;2022-11-28T15:33:20;18.05;;;9.77;;
54919;SDS011;63804;53.120;8.764;2022-11-28T15:35:53;14.07;;;7.70;;
54919;SDS011;63804;53.120;8.764;2022-11-28T15:38:20;15.35;;;8.65;;
54919;SDS011;63804;53.120;8.764;2022-11-28T15:40:48;14.80;;;8.23;;
54919;SDS011;63804;53.120;8.764;2022-11-28T15:43:17;13.73;;;8.40;;
54919;SDS011;63804;53.120;8.764;2022-11-28T15:45:49;17.98;;;8.65;;
54919;SDS011;63804;53.120;8.764;2022-11-28T15:48:27;15.93;;;7.90;;
54919;SDS011;63804;53.120;8.764;2022-11-28T15:51:01;16.05;;;8.60;;
54919;SDS011;63804;53.120;8.764;2022-11-28T15:53:31;17.95;;;9.23;;
54919;SDS011;63804;53.120;8.764;2022-11-28T15:56:08;18.92;;;8.75;;
54919;SDS011;63804;53.120;8.764;2022-11-28T15:58:40;16.27;;;9.10;;
54919;SDS011;63804;53.120;8.764;2022-11-28T16:01:15;14.85;;;8.32;;
54919;SDS011;63804;53.120;8.764;2022-11-28T16:06:25;16.30;;;9.38;;
54919;SDS011;63804;53.120;8.764;2022-11-28T16:08:54;15.35;;;8.70;;
54919;SDS011;63804;53.120;8.764;2022-11-28T16:11:29;15.65;;;8.77;;
54919;SDS011;63804;53.120;8.764;2022-11-28T16:13:57;14.77;;;9.10;;
54919;SDS011;63804;53.120;8.764;2022-11-28T16:16:29;14.55;;;8.60;;
54919;SDS011;63804;53.120;8.764;2022-11-28T16:19:02;16.17;;;8.23;;
54919;SDS011;63804;53.120;8.764;2022-11-28T16:21:31;17.20;;;9.65;;
54919;SDS011;63804;53.120;8.764;2022-11-28T16:24:00;16.85;;;9.55;;
54919;SDS011;63804;53.120;8.764;2022-11-28T16:26:34;15.50;;;8.73;;
54919;SDS011;63804;53.120;8.764;2022-11-28T16:31:30;16.33;;;9.18;;
54919;SDS011;63804;53.120;8.764;2022-11-28T16:33:56;15.85;;;8.60;;
54919;SDS011;63804;53.120;8.764;2022-11-28T16:39:03;15.13;;;8.68;;
54919;SDS011;63804;53.120;8.764;2022-11-28T16:41:29;16.10;;;9.25;;
54919;SDS011;63804;53.120;8.764;2022-11-28T16:44:00;18.08;;;9.00;;
54919;SDS011;63804;53.120;8.764;2022-11-28T16:46:33;15.77;;;8.55;;
54919;SDS011;63804;53.120;8.764;2022-11-28T16:49:02;15.82;;;9.30;;
54919;SDS011;63804;53.120;8.764;2022-11-28T16:51:35;17.52;;;9.15;;
54919;SDS011;63804;53.120;8.764;2022-11-28T16:54:20;18.65;;;9.95;;
54919;SDS011;63804;53.120;8.764;2022-11-28T16:56:53;15.32;;;9.15;;
54919;SDS011;63804;53.120;8.764;2022-11-28T16:59:22;18.55;;;9.52;;
54919;SDS011;63804;53.120;8.764;2022-11-28T17:01:55;16.50;;;9.15;;
54919;SDS011;63804;53.120;8.764;2022-11-28T17:04:22;18.98;;;9.55;;
54919;SDS011;63804;53.120;8.764;2022-11-28T17:06:53;17.42;;;9.02;;
54919;SDS011;63804;53.120;8.764;2022-11-28T17:09:20;17.23;;;9.23;;
54919;SDS011;63804;53.120;8.764;2022-11-28T17:11:49;16.67;;;9.43;;
54919;SDS011;63804;53.120;8.764;2022-11-28T17:14:24;17.13;;;9.50;;
54919;SDS011;63804;53.120;8.764;2022-11-28T17:16:50;15.55;;;9.32;;
54919;SDS011;63804;53.120;8.764;2022-11-28T17:19:16;18.17;;;8.90;;
54919;SDS011;63804;53.120;8.764;2022-11-28T17:21:42;16.50;;;9.35;;
54919;SDS011;63804;53.120;8.764;2022-11-28T17:24:15;17.02;;;9.77;;
54919;SDS011;63804;53.120;8.764;2022-11-28T17:26:52;20.08;;;11.70;;
54919;SDS011;63804;53.120;8.764;2022-11-28T17:29:18;17.77;;;10.45;;
54919;SDS011;63804;53.120;8.764;2022-11-28T17:31:45;18.88;;;10.10;;
54919;SDS011;63804;53.120;8.764;2022-11-28T17:34:15;16.67;;;10.00;;
54919;SDS011;63804;53.120;8.764;2022-11-28T17:36:52;18.85;;;10.55;;
54919;SDS011;63804;53.120;8.764;2022-11-28T17:39:18;18.95;;;11.65;;
54919;SDS011;63804;53.120;8.764;2022-11-28T17:41:45;21.35;;;11.20;;
54919;SDS011;63804;53.120;8.764;2022-11-28T17:44:16;19.77;;;10.73;;
54919;SDS011;63804;53.120;8.764;2022-11-28T17:46:42;20.20;;;11.55;;
54919;SDS011;63804;53.120;8.764;2022-11-28T17:49:08;18.98;;;10.50;;
54919;SDS011;63804;53.120;8.764;2022-11-28T17:51:34;20.02;;;9.90;;
54919;SDS011;63804;53.120;8.764;2022-11-28T17:53:59;16.75;;;9.18;;
54919;SDS011;63804;53.120;8.764;2022-11-28T17:56:25;20.60;;;9.85;;
54919;SDS011;63804;53.120;8.764;2022-11-28T17:58:51;18.15;;;10.18;;
54919;SDS011;63804;53.120;8.764;2022-11-28T18:01:18;18.05;;;9.93;;
54919;SDS011;63804;53.120;8.764;2022-11-28T18:03:49;19.52;;;9.57;;
54919;SDS011;63804;53.120;8.764;2022-11-28T18:06:17;16.20;;;9.63;;
54919;SDS011;63804;53.120;8.764;2022-11-28T18:08:44;16.25;;;9.13;;
54919;SDS011;63804;53.120;8.764;2022-11-28T18:11:12;17.67;;;9.80;;
54919;SDS011;63804;53.120;8.764;2022-11-28T18:13:38;19.27;;;10.18;;
54919;SDS011;63804;53.120;8.764;2022-11-28T18:16:10;16.48;;;9.63;;
54919;SDS011;63804;53.120;8.764;2022-11-28T18:18:36;19.08;;;9.73;;
54919;SDS011;63804;53.120;8.764;2022-11-28T18:21:04;18.00;;;10.05;;
54919;SDS011;63804;53.120;8.764;2022-11-28T18:23:31;16.45;;;10.15;;
54919;SDS011;63804;53.120;8.764;2022-11-28T18:25:57;15.82;;;9.32;;
54919;SDS011;63804;53.120;8.764;2022-11-28T18:28:23;17.75;;;10.27;;